UAL1801 KPBI-KORD
Flight info
| Callsign | UAL1801 |
|---|---|
| Flight time | N/A |
| Altitude | 35000 |
| Route | TBIRD7 KPASA Q118 HEVAN BONNT VEECK5 |
| Aircraft | B739/M-SDE2E3FGHIRWXY/LB1 |
Departure
| Time | 2026-04-22 15:30 |
|---|---|
| Airport | Palm Beach International Airport (KPBI) |
Arrival
| Time | N/A |
|---|---|
| Airport | Chicago O'Hare International Airport (KORD) |
| Time | Latitude | Longitude | Altitude | Speed | Heading |
|---|---|---|---|---|---|
| 2026-04-22 15:04 | 26.68682 | -80.09239 | 15 ft | 0 kts | 317° |
| 2026-04-22 15:20 | 26.68668 | -80.09225 | 30 ft | 4 kts | 317° |
| 2026-04-22 15:21 | 26.68649 | -80.09206 | 30 ft | 3 kts | 316° |
| 2026-04-22 15:21 | 26.68637 | -80.09185 | 30 ft | 4 kts | 268° |
| 2026-04-22 15:21 | 26.68646 | -80.09160 | 28 ft | 4 kts | 230° |
| 2026-04-22 15:21 | 26.68653 | -80.09150 | 30 ft | 1 kts | 227° |
| 2026-04-22 15:24 | 26.68647 | -80.09158 | 28 ft | 7 kts | 227° |
| 2026-04-22 15:24 | 26.68597 | -80.09219 | 26 ft | 11 kts | 227° |
| 2026-04-22 15:24 | 26.68545 | -80.09283 | 28 ft | 11 kts | 227° |
| 2026-04-22 15:24 | 26.68492 | -80.09348 | 25 ft | 12 kts | 227° |
| 2026-04-22 15:25 | 26.68422 | -80.09380 | 25 ft | 12 kts | 167° |
| 2026-04-22 15:25 | 26.68370 | -80.09421 | 25 ft | 11 kts | 271° |
| 2026-04-22 15:25 | 26.68377 | -80.09573 | 26 ft | 27 kts | 273° |
| 2026-04-22 15:25 | 26.68387 | -80.09782 | 25 ft | 26 kts | 273° |
| 2026-04-22 15:26 | 26.68394 | -80.09978 | 26 ft | 24 kts | 273° |
| 2026-04-22 15:26 | 26.68402 | -80.10163 | 24 ft | 23 kts | 272° |
| 2026-04-22 15:26 | 26.68410 | -80.10337 | 24 ft | 23 kts | 273° |
| 2026-04-22 15:26 | 26.68419 | -80.10542 | 24 ft | 27 kts | 272° |
| 2026-04-22 15:27 | 26.68428 | -80.10737 | 24 ft | 21 kts | 273° |
| 2026-04-22 15:27 | 26.68428 | -80.10794 | 24 ft | 2 kts | 252° |
| 2026-04-22 15:27 | 26.68427 | -80.10795 | 24 ft | 0 kts | 250° |
| 2026-04-22 15:28 | 26.68425 | -80.10802 | 24 ft | 6 kts | 243° |
| 2026-04-22 15:28 | 26.68359 | -80.10821 | 28 ft | 11 kts | 181° |
| 2026-04-22 15:29 | 26.68320 | -80.10763 | 28 ft | 11 kts | 94° |
| 2026-04-22 15:29 | 26.68309 | -80.10556 | 24 ft | 59 kts | 92° |
| 2026-04-22 15:29 | 26.68278 | -80.09836 | 25 ft | 124 kts | 92° |
| 2026-04-22 15:30 | 26.68168 | -80.07263 | 525 ft | 188 kts | 93° |
| 2026-04-22 15:30 | 26.68135 | -80.05723 | 1020 ft | 205 kts | 86° |
| 2026-04-22 15:30 | 26.68571 | -80.04241 | 1908 ft | 200 kts | 64° |
| 2026-04-22 15:30 | 26.69260 | -80.02871 | 2419 ft | 215 kts | 63° |
| 2026-04-22 15:31 | 26.70021 | -80.01284 | 2746 ft | 238 kts | 64° |
| 2026-04-22 15:31 | 26.70787 | -79.99648 | 3487 ft | 242 kts | 64° |
| 2026-04-22 15:31 | 26.71844 | -79.98159 | 4257 ft | 251 kts | 39° |
| 2026-04-22 15:31 | 26.73428 | -79.97272 | 4987 ft | 263 kts | 17° |
| 2026-04-22 15:32 | 26.75253 | -79.96901 | 5745 ft | 269 kts | 12° |
| 2026-04-22 15:32 | 26.77149 | -79.96842 | 6471 ft | 279 kts | 350° |
| 2026-04-22 15:32 | 26.78925 | -79.97762 | 7222 ft | 288 kts | 321° |
| 2026-04-22 15:32 | 26.80088 | -79.99563 | 8067 ft | 288 kts | 293° |
| 2026-04-22 15:33 | 26.80779 | -80.01675 | 8836 ft | 290 kts | 289° |
| 2026-04-22 15:33 | 26.81416 | -80.03829 | 9641 ft | 291 kts | 288° |
| 2026-04-22 15:33 | 26.82059 | -80.05985 | 10378 ft | 295 kts | 289° |
| 2026-04-22 15:33 | 26.82739 | -80.08240 | 10589 ft | 317 kts | 289° |
| 2026-04-22 15:34 | 26.83463 | -80.10622 | 10757 ft | 338 kts | 289° |
| 2026-04-22 15:34 | 26.84250 | -80.13192 | 10907 ft | 358 kts | 289° |
| 2026-04-22 15:34 | 26.85084 | -80.15907 | 11098 ft | 375 kts | 289° |
| 2026-04-22 15:34 | 26.85943 | -80.18696 | 11573 ft | 381 kts | 289° |
| 2026-04-22 15:35 | 26.86514 | -80.20551 | 12028 ft | 381 kts | 288° |
| 2026-04-22 15:35 | 26.87680 | -80.24334 | 12825 ft | 385 kts | 288° |
| 2026-04-22 15:35 | 26.88556 | -80.27179 | 13421 ft | 387 kts | 288° |
| 2026-04-22 15:35 | 26.89426 | -80.30005 | 13974 ft | 390 kts | 288° |
| 2026-04-22 15:36 | 26.90320 | -80.32879 | 14505 ft | 391 kts | 290° |
| 2026-04-22 15:36 | 26.91734 | -80.35525 | 15074 ft | 395 kts | 310° |
| 2026-04-22 15:36 | 26.93805 | -80.37503 | 15565 ft | 401 kts | 327° |
| 2026-04-22 15:36 | 26.96364 | -80.38797 | 16072 ft | 405 kts | 336° |
| 2026-04-22 15:37 | 26.99018 | -80.39907 | 16552 ft | 408 kts | 337° |
| 2026-04-22 15:37 | 27.01699 | -80.41006 | 17003 ft | 411 kts | 337° |
| 2026-04-22 15:37 | 27.04393 | -80.42124 | 17463 ft | 414 kts | 337° |
| 2026-04-22 15:37 | 27.07091 | -80.43264 | 17915 ft | 416 kts | 336° |
| 2026-04-22 15:38 | 27.09810 | -80.44429 | 18366 ft | 419 kts | 336° |
| 2026-04-22 15:38 | 27.15280 | -80.46789 | 19202 ft | 421 kts | 336° |
| 2026-04-22 15:38 | 27.17979 | -80.47987 | 19635 ft | 421 kts | 335° |
| 2026-04-22 15:39 | 27.20693 | -80.49239 | 20056 ft | 422 kts | 335° |
| 2026-04-22 15:39 | 27.23418 | -80.50511 | 20457 ft | 423 kts | 334° |
| 2026-04-22 15:39 | 27.26144 | -80.51779 | 20858 ft | 424 kts | 334° |
| 2026-04-22 15:39 | 27.28882 | -80.53045 | 21255 ft | 425 kts | 335° |
| 2026-04-22 15:40 | 27.31625 | -80.54310 | 21640 ft | 426 kts | 334° |
| 2026-04-22 15:40 | 27.34354 | -80.55628 | 22022 ft | 427 kts | 333° |
| 2026-04-22 15:40 | 27.37059 | -80.57009 | 22404 ft | 427 kts | 332° |
| 2026-04-22 15:40 | 27.39762 | -80.58410 | 22745 ft | 429 kts | 332° |
| 2026-04-22 15:41 | 27.42478 | -80.59812 | 23093 ft | 430 kts | 332° |
| 2026-04-22 15:41 | 27.45173 | -80.61192 | 23444 ft | 431 kts | 332° |
| 2026-04-22 15:41 | 27.47912 | -80.62587 | 23775 ft | 432 kts | 332° |
| 2026-04-22 15:41 | 27.50658 | -80.63986 | 24044 ft | 433 kts | 332° |
| 2026-04-22 15:42 | 27.53238 | -80.65722 | 24270 ft | 430 kts | 317° |
| 2026-04-22 15:42 | 27.55453 | -80.67979 | 24544 ft | 430 kts | 315° |
| 2026-04-22 15:42 | 27.57675 | -80.70248 | 24798 ft | 431 kts | 315° |
| 2026-04-22 15:42 | 27.59917 | -80.72505 | 25030 ft | 433 kts | 316° |
| 2026-04-22 15:43 | 27.62178 | -80.74759 | 25288 ft | 434 kts | 316° |
| 2026-04-22 15:43 | 27.64447 | -80.77010 | 25554 ft | 436 kts | 316° |
| 2026-04-22 15:43 | 27.66730 | -80.79271 | 25798 ft | 437 kts | 316° |
| 2026-04-22 15:43 | 27.69017 | -80.81537 | 26042 ft | 439 kts | 315° |
| 2026-04-22 15:44 | 27.71316 | -80.83817 | 26302 ft | 440 kts | 315° |
| 2026-04-22 15:44 | 27.73619 | -80.86103 | 26538 ft | 441 kts | 315° |
| 2026-04-22 15:44 | 27.75928 | -80.88398 | 26774 ft | 443 kts | 315° |
| 2026-04-22 15:44 | 27.78214 | -80.90670 | 27028 ft | 444 kts | 315° |
| 2026-04-22 15:45 | 27.80532 | -80.92976 | 27267 ft | 445 kts | 315° |
| 2026-04-22 15:45 | 27.82865 | -80.95290 | 27498 ft | 447 kts | 316° |
| 2026-04-22 15:45 | 27.85315 | -80.97462 | 27764 ft | 449 kts | 320° |
| 2026-04-22 15:45 | 27.87869 | -80.99506 | 28127 ft | 448 kts | 321° |
| 2026-04-22 15:46 | 27.90430 | -81.01493 | 28538 ft | 446 kts | 321° |
| 2026-04-22 15:46 | 27.92982 | -81.03480 | 28937 ft | 444 kts | 320° |
| 2026-04-22 15:46 | 27.95510 | -81.05480 | 29308 ft | 443 kts | 320° |
| 2026-04-22 15:46 | 27.98021 | -81.07492 | 29697 ft | 441 kts | 320° |
| 2026-04-22 15:47 | 28.00518 | -81.09510 | 30112 ft | 439 kts | 319° |
| 2026-04-22 15:47 | 28.02996 | -81.11520 | 30515 ft | 437 kts | 319° |
| 2026-04-22 15:47 | 28.05438 | -81.13501 | 30867 ft | 436 kts | 319° |
| 2026-04-22 15:47 | 28.07902 | -81.15499 | 31222 ft | 434 kts | 319° |
| 2026-04-22 15:48 | 28.10285 | -81.17568 | 31558 ft | 428 kts | 310° |
| 2026-04-22 15:48 | 28.12095 | -81.20187 | 31860 ft | 419 kts | 297° |
| 2026-04-22 15:48 | 28.12978 | -81.22132 | 32067 ft | 416 kts | 290° |
| 2026-04-22 15:48 | 28.13837 | -81.25242 | 32369 ft | 413 kts | 279° |
| 2026-04-22 15:49 | 28.14145 | -81.28475 | 32660 ft | 412 kts | 274° |
| 2026-04-22 15:49 | 28.14322 | -81.31708 | 32970 ft | 411 kts | 273° |
| 2026-04-22 15:49 | 28.14473 | -81.34937 | 33294 ft | 409 kts | 273° |
| 2026-04-22 15:49 | 28.14626 | -81.38148 | 33598 ft | 408 kts | 273° |
| 2026-04-22 15:50 | 28.14790 | -81.41359 | 33898 ft | 407 kts | 274° |
| 2026-04-22 15:50 | 28.14964 | -81.44557 | 34181 ft | 406 kts | 274° |
| 2026-04-22 15:50 | 28.15145 | -81.47747 | 34286 ft | 407 kts | 274° |
| 2026-04-22 15:50 | 28.15331 | -81.50955 | 34298 ft | 406 kts | 274° |
| 2026-04-22 15:51 | 28.15700 | -81.57291 | 34293 ft | 404 kts | 274° |
| 2026-04-22 15:51 | 28.16067 | -81.63643 | 34301 ft | 403 kts | 274° |
| 2026-04-22 15:52 | 28.16430 | -81.69980 | 34299 ft | 402 kts | 274° |
| 2026-04-22 15:52 | 28.16789 | -81.76309 | 34304 ft | 402 kts | 274° |
| 2026-04-22 15:53 | 28.17146 | -81.82642 | 34301 ft | 402 kts | 274° |
| 2026-04-22 15:53 | 28.18201 | -81.88832 | 34311 ft | 405 kts | 293° |
| 2026-04-22 15:54 | 28.21527 | -81.93976 | 34286 ft | 417 kts | 315° |
| 2026-04-22 15:54 | 28.26286 | -81.97842 | 34290 ft | 423 kts | 320° |
| 2026-04-22 15:55 | 28.31200 | -82.01599 | 34291 ft | 423 kts | 320° |
| 2026-04-22 15:55 | 28.36026 | -82.05372 | 34293 ft | 424 kts | 319° |
| 2026-04-22 15:56 | 28.40866 | -82.09210 | 34292 ft | 425 kts | 319° |
| 2026-04-22 15:56 | 28.45720 | -82.13066 | 34286 ft | 425 kts | 319° |
| 2026-04-22 15:57 | 28.50572 | -82.16922 | 34285 ft | 426 kts | 319° |
| 2026-04-22 15:57 | 28.55432 | -82.20790 | 34284 ft | 426 kts | 319° |
| 2026-04-22 15:58 | 28.60281 | -82.24654 | 34293 ft | 425 kts | 319° |
| 2026-04-22 15:58 | 28.65129 | -82.28522 | 34300 ft | 425 kts | 319° |
| 2026-04-22 15:59 | 28.69932 | -82.32360 | 34301 ft | 424 kts | 319° |
| 2026-04-22 15:59 | 28.74758 | -82.36220 | 34302 ft | 423 kts | 319° |
| 2026-04-22 16:00 | 28.79572 | -82.40075 | 34305 ft | 422 kts | 319° |
| 2026-04-22 16:00 | 28.84377 | -82.43928 | 34304 ft | 421 kts | 319° |
| 2026-04-22 16:01 | 28.89180 | -82.47784 | 34302 ft | 423 kts | 319° |
| 2026-04-22 16:01 | 28.94006 | -82.51662 | 34300 ft | 424 kts | 319° |
| 2026-04-22 16:02 | 28.98847 | -82.55557 | 34299 ft | 425 kts | 319° |
| 2026-04-22 16:02 | 29.03683 | -82.59452 | 34290 ft | 425 kts | 319° |
| 2026-04-22 16:03 | 29.08490 | -82.63327 | 34292 ft | 425 kts | 319° |
| 2026-04-22 16:03 | 29.13306 | -82.67215 | 34288 ft | 424 kts | 319° |
| 2026-04-22 16:04 | 29.18121 | -82.71107 | 34291 ft | 423 kts | 319° |
| 2026-04-22 16:04 | 29.22921 | -82.74991 | 34286 ft | 422 kts | 319° |
| 2026-04-22 16:05 | 29.27711 | -82.78872 | 34289 ft | 421 kts | 319° |
| 2026-04-22 16:05 | 29.32490 | -82.82749 | 34290 ft | 420 kts | 319° |
| 2026-04-22 16:06 | 29.37259 | -82.86623 | 34296 ft | 419 kts | 319° |
| 2026-04-22 16:06 | 29.42016 | -82.90491 | 34294 ft | 419 kts | 319° |
| 2026-04-22 16:07 | 29.46750 | -82.94345 | 34295 ft | 419 kts | 319° |
| 2026-04-22 16:07 | 29.51556 | -82.98144 | 34293 ft | 422 kts | 324° |
| 2026-04-22 16:08 | 29.56974 | -83.00946 | 34299 ft | 429 kts | 331° |
| 2026-04-22 16:08 | 29.62514 | -83.03516 | 34299 ft | 429 kts | 331° |
| 2026-04-22 16:09 | 29.68047 | -83.06111 | 34298 ft | 429 kts | 331° |
| 2026-04-22 16:09 | 29.73559 | -83.08726 | 34295 ft | 429 kts | 331° |
| 2026-04-22 16:10 | 29.79078 | -83.11356 | 34298 ft | 429 kts | 331° |
| 2026-04-22 16:10 | 29.84563 | -83.13974 | 34302 ft | 429 kts | 331° |
| 2026-04-22 16:11 | 29.90110 | -83.16623 | 34297 ft | 428 kts | 331° |
| 2026-04-22 16:11 | 29.95587 | -83.19242 | 34297 ft | 428 kts | 331° |
| 2026-04-22 16:12 | 30.01100 | -83.21882 | 34302 ft | 428 kts | 331° |
| 2026-04-22 16:12 | 30.06595 | -83.24516 | 34305 ft | 427 kts | 331° |
| 2026-04-22 16:13 | 30.12090 | -83.27153 | 34301 ft | 427 kts | 331° |
| 2026-04-22 16:13 | 30.17541 | -83.29772 | 34308 ft | 427 kts | 331° |
| 2026-04-22 16:14 | 30.23032 | -83.32414 | 34297 ft | 426 kts | 331° |
| 2026-04-22 16:14 | 30.28517 | -83.35059 | 34305 ft | 426 kts | 331° |
| 2026-04-22 16:15 | 30.33959 | -83.37689 | 34297 ft | 426 kts | 331° |
| 2026-04-22 16:15 | 30.39427 | -83.40336 | 34300 ft | 426 kts | 331° |
| 2026-04-22 16:16 | 30.44894 | -83.42985 | 34301 ft | 426 kts | 331° |
| 2026-04-22 16:16 | 30.50370 | -83.45642 | 34305 ft | 426 kts | 332° |
| 2026-04-22 16:17 | 30.55843 | -83.48300 | 34305 ft | 427 kts | 332° |
| 2026-04-22 16:17 | 30.61326 | -83.50967 | 34311 ft | 427 kts | 332° |
| 2026-04-22 16:18 | 30.66814 | -83.53639 | 34307 ft | 427 kts | 332° |
| 2026-04-22 16:18 | 30.72304 | -83.56315 | 34309 ft | 427 kts | 332° |
| 2026-04-22 16:19 | 30.77790 | -83.58992 | 34309 ft | 427 kts | 332° |
| 2026-04-22 16:19 | 30.83263 | -83.61667 | 34302 ft | 427 kts | 332° |
| 2026-04-22 16:20 | 30.88741 | -83.64348 | 34310 ft | 426 kts | 332° |
| 2026-04-22 16:20 | 30.94199 | -83.67022 | 34307 ft | 425 kts | 332° |
| 2026-04-22 16:21 | 30.99648 | -83.69694 | 34306 ft | 424 kts | 332° |
| 2026-04-22 16:21 | 31.05053 | -83.72349 | 34307 ft | 423 kts | 332° |
| 2026-04-22 16:22 | 31.13198 | -83.76357 | 34301 ft | 423 kts | 332° |
| 2026-04-22 16:23 | 31.21324 | -83.80362 | 34307 ft | 422 kts | 332° |
| 2026-04-22 16:23 | 31.26744 | -83.83037 | 34303 ft | 423 kts | 332° |
| 2026-04-22 16:24 | 31.34875 | -83.87057 | 34302 ft | 423 kts | 332° |
| 2026-04-22 16:25 | 31.40305 | -83.89747 | 34299 ft | 423 kts | 332° |
| 2026-04-22 16:25 | 31.48444 | -83.93783 | 34306 ft | 423 kts | 332° |
| 2026-04-22 16:26 | 31.53991 | -83.96164 | 34290 ft | 430 kts | 342° |
| 2026-04-22 16:26 | 31.59854 | -83.97471 | 34314 ft | 431 kts | 344° |
| 2026-04-22 16:27 | 31.65771 | -83.98726 | 34309 ft | 431 kts | 344° |
| 2026-04-22 16:27 | 31.71672 | -84.00008 | 34299 ft | 431 kts | 344° |
| 2026-04-22 16:28 | 31.76579 | -84.01093 | 34293 ft | 431 kts | 344° |
| 2026-04-22 16:28 | 31.82466 | -84.02405 | 34307 ft | 430 kts | 345° |
| 2026-04-22 16:29 | 31.88352 | -84.03720 | 34297 ft | 430 kts | 345° |
| 2026-04-22 16:29 | 31.94227 | -84.05034 | 34279 ft | 429 kts | 345° |
| 2026-04-22 16:30 | 32.00093 | -84.06348 | 34268 ft | 428 kts | 345° |
| 2026-04-22 16:30 | 32.05903 | -84.07650 | 34270 ft | 427 kts | 345° |
| 2026-04-22 16:31 | 32.11740 | -84.08960 | 34269 ft | 426 kts | 345° |
| 2026-04-22 16:31 | 32.17562 | -84.10268 | 34260 ft | 425 kts | 345° |
| 2026-04-22 16:32 | 32.23372 | -84.11575 | 34273 ft | 424 kts | 345° |
| 2026-04-22 16:32 | 32.29176 | -84.12883 | 34276 ft | 423 kts | 345° |
| 2026-04-22 16:33 | 32.34965 | -84.14189 | 34272 ft | 423 kts | 345° |
| 2026-04-22 16:33 | 32.40710 | -84.15487 | 34273 ft | 422 kts | 345° |
| 2026-04-22 16:34 | 32.46478 | -84.16792 | 34278 ft | 422 kts | 345° |
| 2026-04-22 16:34 | 32.52257 | -84.18101 | 34273 ft | 421 kts | 345° |
| 2026-04-22 16:35 | 32.58020 | -84.19408 | 34277 ft | 421 kts | 345° |
| 2026-04-22 16:35 | 32.63781 | -84.20716 | 34274 ft | 421 kts | 345° |
| 2026-04-22 16:36 | 32.69495 | -84.22015 | 34276 ft | 421 kts | 345° |
| 2026-04-22 16:36 | 32.75251 | -84.23326 | 34274 ft | 420 kts | 345° |
| 2026-04-22 16:37 | 32.81000 | -84.24636 | 34282 ft | 420 kts | 345° |
| 2026-04-22 16:37 | 32.86745 | -84.25948 | 34278 ft | 420 kts | 345° |
| 2026-04-22 16:38 | 32.92486 | -84.27260 | 34278 ft | 420 kts | 345° |
| 2026-04-22 16:38 | 32.98237 | -84.28577 | 34282 ft | 420 kts | 345° |
| 2026-04-22 16:39 | 33.03980 | -84.29893 | 34314 ft | 421 kts | 345° |
| 2026-04-22 16:39 | 33.09739 | -84.31214 | 34307 ft | 421 kts | 345° |
| 2026-04-22 16:40 | 33.15461 | -84.32529 | 34299 ft | 421 kts | 345° |
| 2026-04-22 16:41 | 33.24096 | -84.34517 | 34323 ft | 421 kts | 345° |
| 2026-04-22 16:41 | 33.29846 | -84.35843 | 34332 ft | 421 kts | 345° |
| 2026-04-22 16:42 | 33.35606 | -84.37173 | 34334 ft | 421 kts | 345° |
| 2026-04-22 16:42 | 33.41367 | -84.38505 | 34331 ft | 421 kts | 345° |
| 2026-04-22 16:43 | 33.47134 | -84.39840 | 34327 ft | 421 kts | 345° |
| 2026-04-22 16:43 | 33.52891 | -84.41174 | 34299 ft | 421 kts | 345° |
| 2026-04-22 16:44 | 33.58614 | -84.42503 | 34303 ft | 421 kts | 345° |
| 2026-04-22 16:44 | 33.64373 | -84.43836 | 34303 ft | 421 kts | 345° |
| 2026-04-22 16:45 | 33.70144 | -84.45101 | 34308 ft | 422 kts | 346° |
| 2026-04-22 16:45 | 33.75922 | -84.46352 | 34293 ft | 422 kts | 345° |
| 2026-04-22 16:46 | 33.81709 | -84.47616 | 34296 ft | 423 kts | 345° |
| 2026-04-22 16:46 | 33.87501 | -84.48888 | 34275 ft | 423 kts | 345° |
| 2026-04-22 16:47 | 33.93309 | -84.50165 | 34282 ft | 423 kts | 345° |
| 2026-04-22 16:47 | 33.99123 | -84.51445 | 34319 ft | 424 kts | 345° |
| 2026-04-22 16:48 | 34.04964 | -84.52581 | 34312 ft | 427 kts | 349° |
| 2026-04-22 16:48 | 34.10861 | -84.53207 | 34302 ft | 429 kts | 351° |
| 2026-04-22 16:49 | 34.16819 | -84.53779 | 34298 ft | 429 kts | 351° |
| 2026-04-22 16:49 | 34.22779 | -84.54375 | 34299 ft | 430 kts | 350° |
| 2026-04-22 16:50 | 34.28751 | -84.54994 | 34304 ft | 430 kts | 350° |
| 2026-04-22 16:50 | 34.34717 | -84.55620 | 34300 ft | 431 kts | 350° |
| 2026-04-22 16:51 | 34.40695 | -84.56250 | 34300 ft | 431 kts | 350° |
| 2026-04-22 16:51 | 34.46689 | -84.56882 | 34283 ft | 432 kts | 350° |
| 2026-04-22 16:52 | 34.52691 | -84.57515 | 34285 ft | 433 kts | 350° |
| 2026-04-22 16:52 | 34.58657 | -84.58146 | 34274 ft | 433 kts | 350° |
| 2026-04-22 16:53 | 34.64677 | -84.58783 | 34281 ft | 434 kts | 350° |
| 2026-04-22 16:53 | 34.70696 | -84.59421 | 34276 ft | 434 kts | 350° |
| 2026-04-22 16:54 | 34.76730 | -84.60061 | 34272 ft | 435 kts | 350° |
| 2026-04-22 16:54 | 34.82762 | -84.60702 | 34277 ft | 435 kts | 350° |
| 2026-04-22 16:55 | 34.88811 | -84.61346 | 34269 ft | 437 kts | 350° |
| 2026-04-22 16:55 | 34.94870 | -84.61992 | 34266 ft | 437 kts | 350° |
| 2026-04-22 16:56 | 35.00937 | -84.62639 | 34252 ft | 437 kts | 350° |
| 2026-04-22 16:56 | 35.07000 | -84.63287 | 34266 ft | 437 kts | 350° |
| 2026-04-22 16:57 | 35.13021 | -84.63932 | 34271 ft | 437 kts | 350° |
| 2026-04-22 16:57 | 35.19083 | -84.64582 | 34272 ft | 437 kts | 350° |
| 2026-04-22 16:58 | 35.24170 | -84.65128 | 34255 ft | 438 kts | 350° |
| 2026-04-22 16:58 | 35.31227 | -84.65887 | 34277 ft | 438 kts | 349° |
| 2026-04-22 16:59 | 35.37294 | -84.66540 | 34291 ft | 438 kts | 349° |
| 2026-04-22 16:59 | 35.43366 | -84.67195 | 34284 ft | 438 kts | 349° |
| 2026-04-22 17:00 | 35.49432 | -84.67851 | 34283 ft | 437 kts | 349° |
| 2026-04-22 17:00 | 35.58537 | -84.68834 | 34273 ft | 436 kts | 349° |
| 2026-04-22 17:01 | 35.64556 | -84.69486 | 34256 ft | 436 kts | 349° |
| 2026-04-22 17:01 | 35.70606 | -84.70145 | 34257 ft | 436 kts | 349° |
| 2026-04-22 17:02 | 35.76651 | -84.70804 | 34262 ft | 436 kts | 349° |
| 2026-04-22 17:02 | 35.82702 | -84.71463 | 34270 ft | 436 kts | 349° |
| 2026-04-22 17:03 | 35.88736 | -84.72121 | 34272 ft | 435 kts | 349° |
| 2026-04-22 17:03 | 35.94786 | -84.72782 | 34270 ft | 435 kts | 349° |
| 2026-04-22 17:04 | 36.00822 | -84.73443 | 34270 ft | 435 kts | 349° |
| 2026-04-22 17:04 | 36.06804 | -84.74098 | 34259 ft | 434 kts | 349° |
| 2026-04-22 17:05 | 36.12826 | -84.74760 | 34253 ft | 434 kts | 349° |
| 2026-04-22 17:05 | 36.18844 | -84.75421 | 34243 ft | 433 kts | 349° |
| 2026-04-22 17:06 | 36.24847 | -84.76082 | 34242 ft | 432 kts | 349° |
| 2026-04-22 17:06 | 36.30834 | -84.76743 | 34239 ft | 432 kts | 350° |
| 2026-04-22 17:07 | 36.36817 | -84.77404 | 34239 ft | 431 kts | 349° |
| 2026-04-22 17:07 | 36.42767 | -84.78020 | 34235 ft | 433 kts | 353° |
| 2026-04-22 17:08 | 36.48815 | -84.77951 | 34241 ft | 435 kts | 356° |
| 2026-04-22 17:08 | 36.54878 | -84.77699 | 34241 ft | 435 kts | 356° |
| 2026-04-22 17:09 | 36.60932 | -84.77476 | 34236 ft | 435 kts | 356° |
| 2026-04-22 17:09 | 36.66991 | -84.77290 | 34250 ft | 435 kts | 356° |
| 2026-04-22 17:10 | 36.72029 | -84.77146 | 34249 ft | 435 kts | 356° |
| 2026-04-22 17:10 | 36.78078 | -84.76974 | 34269 ft | 435 kts | 356° |
| 2026-04-22 17:11 | 36.84139 | -84.76801 | 34257 ft | 435 kts | 356° |
| 2026-04-22 17:11 | 36.90184 | -84.76627 | 34256 ft | 435 kts | 356° |
| 2026-04-22 17:12 | 36.96243 | -84.76452 | 34262 ft | 435 kts | 356° |
| 2026-04-22 17:12 | 37.02288 | -84.76277 | 34224 ft | 435 kts | 356° |
| 2026-04-22 17:13 | 37.08337 | -84.76102 | 34226 ft | 434 kts | 356° |
| 2026-04-22 17:13 | 37.14343 | -84.75929 | 34220 ft | 434 kts | 356° |
| 2026-04-22 17:14 | 37.20392 | -84.75752 | 34212 ft | 434 kts | 356° |
| 2026-04-22 17:14 | 37.26435 | -84.75577 | 34217 ft | 433 kts | 356° |
| 2026-04-22 17:15 | 37.32431 | -84.75402 | 34209 ft | 433 kts | 356° |
| 2026-04-22 17:15 | 37.38458 | -84.75209 | 34203 ft | 433 kts | 356° |
| 2026-04-22 17:16 | 37.44487 | -84.75004 | 34214 ft | 433 kts | 356° |
| 2026-04-22 17:16 | 37.50508 | -84.74802 | 34216 ft | 433 kts | 356° |
| 2026-04-22 17:17 | 37.56545 | -84.74600 | 34211 ft | 433 kts | 356° |
| 2026-04-22 17:17 | 37.62564 | -84.74399 | 34215 ft | 432 kts | 356° |
| 2026-04-22 17:18 | 37.68543 | -84.74199 | 34215 ft | 432 kts | 356° |
| 2026-04-22 17:18 | 37.74556 | -84.74003 | 34200 ft | 432 kts | 356° |
| 2026-04-22 17:19 | 37.86584 | -84.73644 | 34182 ft | 432 kts | 356° |
| 2026-04-22 17:20 | 37.98590 | -84.73282 | 34183 ft | 432 kts | 356° |
| 2026-04-22 17:21 | 38.07565 | -84.73009 | 34189 ft | 431 kts | 356° |
| 2026-04-22 17:22 | 38.16551 | -84.72735 | 34172 ft | 428 kts | 356° |
| 2026-04-22 17:23 | 38.25416 | -84.72464 | 34170 ft | 424 kts | 356° |
| 2026-04-22 17:23 | 38.34257 | -84.72194 | 34161 ft | 423 kts | 356° |
| 2026-04-22 17:24 | 38.40116 | -84.72015 | 34157 ft | 423 kts | 356° |
| 2026-04-22 17:24 | 38.46001 | -84.72025 | 34142 ft | 420 kts | 349° |
| 2026-04-22 17:25 | 38.51614 | -84.73756 | 34148 ft | 414 kts | 337° |
| 2026-04-22 17:25 | 38.57038 | -84.76321 | 34110 ft | 418 kts | 340° |
| 2026-04-22 17:26 | 38.62550 | -84.78919 | 34125 ft | 425 kts | 340° |
| 2026-04-22 17:26 | 38.68128 | -84.81515 | 34123 ft | 426 kts | 340° |
| 2026-04-22 17:27 | 38.73701 | -84.84100 | 34118 ft | 426 kts | 340° |
| 2026-04-22 17:27 | 38.79094 | -84.86604 | 34122 ft | 426 kts | 340° |
| 2026-04-22 17:28 | 38.84665 | -84.89197 | 34118 ft | 425 kts | 340° |
| 2026-04-22 17:28 | 38.90222 | -84.91788 | 34122 ft | 424 kts | 340° |
| 2026-04-22 17:29 | 38.95770 | -84.94379 | 34118 ft | 424 kts | 340° |
| 2026-04-22 17:29 | 39.01302 | -84.96977 | 34117 ft | 423 kts | 340° |
| 2026-04-22 17:30 | 39.06835 | -84.99582 | 34114 ft | 422 kts | 340° |
| 2026-04-22 17:30 | 39.12357 | -85.02185 | 34107 ft | 422 kts | 340° |
| 2026-04-22 17:31 | 39.17841 | -85.04774 | 34115 ft | 422 kts | 340° |
| 2026-04-22 17:31 | 39.23353 | -85.07381 | 34112 ft | 422 kts | 339° |
| 2026-04-22 17:32 | 39.28878 | -85.09999 | 34113 ft | 422 kts | 339° |
| 2026-04-22 17:32 | 39.34388 | -85.12613 | 34119 ft | 422 kts | 339° |
| 2026-04-22 17:33 | 39.39901 | -85.15232 | 34122 ft | 421 kts | 339° |
| 2026-04-22 17:33 | 39.45406 | -85.17844 | 34116 ft | 421 kts | 339° |
| 2026-04-22 17:34 | 39.50875 | -85.20434 | 34107 ft | 421 kts | 339° |
| 2026-04-22 17:34 | 39.56378 | -85.23037 | 34101 ft | 421 kts | 339° |
| 2026-04-22 17:35 | 39.61883 | -85.25633 | 34084 ft | 421 kts | 339° |
| 2026-04-22 17:35 | 39.67385 | -85.28220 | 34087 ft | 420 kts | 339° |
| 2026-04-22 17:36 | 39.72891 | -85.30803 | 34087 ft | 421 kts | 339° |
| 2026-04-22 17:36 | 39.78409 | -85.33383 | 34091 ft | 421 kts | 339° |
| 2026-04-22 17:37 | 39.83887 | -85.35937 | 34094 ft | 421 kts | 339° |
| 2026-04-22 17:37 | 39.89399 | -85.38505 | 34092 ft | 421 kts | 339° |
| 2026-04-22 17:38 | 39.94924 | -85.41078 | 34090 ft | 421 kts | 339° |
| 2026-04-22 17:38 | 40.00441 | -85.43646 | 34085 ft | 421 kts | 339° |
| 2026-04-22 17:39 | 40.05971 | -85.46218 | 34070 ft | 422 kts | 339° |
| 2026-04-22 17:40 | 40.14271 | -85.50074 | 34084 ft | 422 kts | 339° |
| 2026-04-22 17:40 | 40.19805 | -85.52641 | 34081 ft | 422 kts | 339° |
| 2026-04-22 17:41 | 40.25315 | -85.55193 | 34081 ft | 422 kts | 339° |
| 2026-04-22 17:41 | 40.30860 | -85.57761 | 34079 ft | 422 kts | 339° |
| 2026-04-22 17:42 | 40.36404 | -85.60321 | 34086 ft | 422 kts | 339° |
| 2026-04-22 17:42 | 40.41009 | -85.62444 | 34092 ft | 421 kts | 339° |
| 2026-04-22 17:43 | 40.47472 | -85.65413 | 34094 ft | 420 kts | 339° |
| 2026-04-22 17:43 | 40.52991 | -85.67941 | 34095 ft | 419 kts | 339° |
| 2026-04-22 17:44 | 40.58510 | -85.70458 | 34091 ft | 419 kts | 339° |
| 2026-04-22 17:44 | 40.61230 | -85.71695 | 33828 ft | 418 kts | 339° |
| 2026-04-22 17:44 | 40.63977 | -85.72944 | 33854 ft | 418 kts | 339° |
| 2026-04-22 17:45 | 40.69479 | -85.75446 | 33903 ft | 417 kts | 339° |
| 2026-04-22 17:45 | 40.74974 | -85.77942 | 34047 ft | 417 kts | 339° |
| 2026-04-22 17:46 | 40.80463 | -85.80437 | 34045 ft | 417 kts | 339° |
| 2026-04-22 17:46 | 40.85954 | -85.82933 | 34039 ft | 417 kts | 339° |
| 2026-04-22 17:47 | 40.91446 | -85.85430 | 34036 ft | 417 kts | 339° |
| 2026-04-22 17:47 | 40.96907 | -85.87912 | 34042 ft | 417 kts | 339° |
| 2026-04-22 17:48 | 41.01475 | -85.89987 | 34040 ft | 417 kts | 339° |
| 2026-04-22 17:48 | 41.07916 | -85.92914 | 34034 ft | 419 kts | 339° |
| 2026-04-22 17:49 | 41.13434 | -85.95418 | 34033 ft | 418 kts | 339° |
| 2026-04-22 17:49 | 41.18933 | -85.97911 | 34036 ft | 417 kts | 339° |
| 2026-04-22 17:50 | 41.24433 | -86.00400 | 34035 ft | 417 kts | 339° |
| 2026-04-22 17:50 | 41.29883 | -86.02862 | 34029 ft | 416 kts | 339° |
| 2026-04-22 17:51 | 41.35377 | -86.05340 | 34035 ft | 416 kts | 339° |
| 2026-04-22 17:51 | 41.40853 | -86.07807 | 34031 ft | 415 kts | 339° |
| 2026-04-22 17:52 | 41.46331 | -86.10269 | 34023 ft | 415 kts | 339° |
| 2026-04-22 17:52 | 41.51813 | -86.12729 | 34037 ft | 416 kts | 339° |
| 2026-04-22 17:53 | 41.57278 | -86.15183 | 34028 ft | 417 kts | 339° |
| 2026-04-22 17:53 | 41.62786 | -86.17652 | 34058 ft | 417 kts | 339° |
| 2026-04-22 17:54 | 41.68289 | -86.20116 | 34054 ft | 417 kts | 339° |
| 2026-04-22 17:54 | 41.73794 | -86.22579 | 34055 ft | 416 kts | 339° |
| 2026-04-22 17:55 | 41.78357 | -86.24616 | 34056 ft | 416 kts | 339° |
| 2026-04-22 17:55 | 41.83839 | -86.27061 | 34048 ft | 415 kts | 339° |
| 2026-04-22 17:56 | 41.90008 | -86.30365 | 33814 ft | 404 kts | 321° |
| 2026-04-22 17:56 | 41.91364 | -86.32124 | 33361 ft | 402 kts | 308° |
| 2026-04-22 17:56 | 41.92786 | -86.35373 | 32476 ft | 408 kts | 295° |
| 2026-04-22 17:56 | 41.93607 | -86.39003 | 31576 ft | 416 kts | 283° |
| 2026-04-22 17:57 | 41.93814 | -86.42897 | 30889 ft | 421 kts | 271° |
| 2026-04-22 17:57 | 41.93370 | -86.46796 | 30326 ft | 424 kts | 258° |